The Weather Page

Only for information, data not for operational purposes.

ELLX Aeronautical Report by METEOLUX

ELLX Current METAR and TAF

ELLX 200050Z AUTO 36007KT 9999 OVC084/// 12/11 Q1005 NOSIG

TAF ELLX 191700Z 1918/2024 20005KT 9999 FEW035 TEMPO 1918/1922 5000 SHRA -TSRA SCT030CB BECMG 1918/1920 34005KT PROB30 2002/2007 5000 BR PROB40 TEMPO 2012/2019 5000 SHRA SCT020TCU BECMG 2013/2015 34012KT

METAR's and TAF's

METAR/TAF from US-NOAA-ADDS. Enter one or more ICAO codes separated by spaces:

METAR TAF 

A list of weather stations and their ICAO and IATA codes is found on this page.

Flight Preparation

EUMETSAT Infrared

Eumetsat Infrared

METEOX Radar

METEOX Radar Image

Comments are closed.